Andover, NH (03216)

5:12 AM EDT on September 04, 2015 (GMT -0400)
boston hill | | Change Station
CLOSE
Current Station
Personal Weather Station
Location: Andover, NH
Elevation: 804 ft
Nearby Weather Stations

Elev 804 ft 43.44 °N, 71.76 °W | Updated 2 minutes ago

Mostly Cloudy
Mostly Cloudy
65.2 °F
Feels Like 65.2 °F
N
5.0
Wind Variable Wind from NE
Gusts 5.0 mph

Today
High -- | Low -- °F
--% Chance of Precip.
Yesterday
High -- | Low -- °F
Precip. -- in
6:14 AM 7:17 PM
Waning Gibbous, 61% visible
Pressure 30.09 in
Visibility 10.0 miles
Clouds Overcast 5000 ft
Dew Point 54 °F
Humidity 66%
Rainfall 0.00 in
Snow Depth Not available.
UV 0 out of 12
Pollen 6.90 out of 12
Air Quality Not available.
Flu Activity Not available.
METAR KLCI 040855Z AUTO 06013G18KT 10SM OVC050 18/09 A3009 RMK AO1 52030
Pressure 30.09 in
Visibility 10.0 miles
Clouds Overcast 5000 ft
Dew Point 54 °F
Humidity 66%
Rainfall 0.00 in
Snow Depth Not available.
UV 0 out of 12
Pollen 6.90 out of 12
Air Quality Not available.
Flu Activity Not available.
METAR KLCI 040855Z AUTO 06013G18KT 10SM OVC050 18/09 A3009 RMK AO1 52030

10-Day Weather Forecast

×

Almanac

Astronomy

Sep. 04, 2015 Rise Set
Actual Time
Civil Twilight
Nautical Twilight
Astronomical Twilight
Moon
Length of Visible Light
Length of Day
Tomorrow will be .
, % of the Moon is Illuminated

Today's Extremes

State Highs State Lows

Community

WunderPhotos

Upload Photos

1,852,142 photos uploaded!

WunderBlogs® & News

Nearby

Air Quality

  Air Quality AQ Index Pollutant
Not available.

Snow Depth

Station Depth Elevation

Earthquake Activity

City Distance Mag. Time & Date
Minimum magnitude displayed is 2.5.

Coastal Water Temperatures

Place Temperature

Stations

Nearby Weather Stations

Station Location Temp. Windchill Dew Point Humidity Wind Precip. Elev Updated Type